首页
METAR-TAF:

METAR-TAF

机场 :

多森, 阿拉巴马州, 美国

纬度: 31-19-17N, 经度: 085-26-59W, 海拔: 122米

当前天气观测

该预报发布于1小时和7分钟前的16:53 UTC
风速8节,风向东南
温度 33°C
湿度 63%
气压 1022 hPa
能見度: 16.1公里
散云层高于2600英尺
散云层高于4800英尺

METAR: KDHN 241653Z 13008KT 10SM SCT026 SCT048 33/25 A3018 RMK AO1 LTG DSNT NW SLP212 T03280250

时间: 13:00 (18:00 UTC)

预报

该预报发布于23分钟前的17:37 UTC
预报有效从24日的 18点(UTC)到 25日的 18点(UTC)
风速8节,风向南转南东
能見度: 10公里
散云层高于2500英尺, 积雨云.
多云层高于4000英尺
小阵雨, 附近有雷暴
短暂存在
从 24日的 18点(UTC)到 24日的 22点(UTC)
能見度: 6.4公里
多云层高于2500英尺, 积雨云.
雷暴, 雨
从 24日的 2300点(UTC)
风速5节,风向
能見度: 10公里
少量云层高于500英尺
散云层高于1500英尺
多云层高于25000英尺

TAF: KDHN 241737Z 2418/2518 15008KT P6SM -SHRA VCTS SCT025CB BKN040 TEMPO 2418/2422 4SM TSRA BKN025CB FM242300 17005KT P6SM FEW005 SCT015 BKN250

超过4000个机场的气象观测和天气预报(METAR&TAF报告)。

可查询的气象台以黄色和红色小点在地图上表示。

将鼠标移到小点上方,可查看气象台名称。

然后点击查看天气观测和预报。

如需切换地图:点击带黑十字的绿色按钮放大地图;点击带横线的绿色按钮缩小地图;或者点击绿色箭头查看邻近地区的地图。


METAR-TAF: